Time;durP1;ratioP1;P1;durP2;ratioP2;P2;SDS_P1;SDS_P2;PMS_P1;PMS_P2;Temp;Humidity;BMP_temperature;BMP_pressure;BME280_temperature;BME280_humidity;BME280_pressure;Samples;Min_cycle;Max_cycle;Signal;HPM_P1;HPM_P2
2023/08/26 00:01:04;;;;;;;;;1.00;1.00;;;;;20.44;49.12;100904.75;5055106;28;45973;-46
2023/08/26 00:03:29;;;;;;;;;1.80;1.40;;;;;20.47;49.14;100913.44;5056581;28;45462;-45
2023/08/26 00:05:54;;;;;;;;;1.00;1.00;;;;;20.47;49.34;100914.28;5056955;28;45319;-44
2023/08/26 00:08:19;;;;;;;;;2.00;1.00;;;;;20.49;49.03;100914.94;5056159;28;45315;-47
2023/08/26 00:10:45;;;;;;;;;0.75;0.75;;;;;20.50;48.96;100918.47;5055110;28;45357;-49
2023/08/26 00:13:11;;;;;;;;;2.00;1.00;;;;;20.48;49.37;100916.00;5056566;28;45413;-47
2023/08/26 00:15:36;;;;;;;;;0.75;0.75;;;;;20.48;49.52;100916.00;5054999;28;45564;-49
2023/08/26 00:18:03;;;;;;;;;1.00;1.00;;;;;20.48;49.43;100907.00;5056420;28;45360;-45
2023/08/26 00:20:29;;;;;;;;;1.60;1.60;;;;;20.50;49.22;100904.97;5055151;28;45322;-49
2023/08/26 00:22:54;;;;;;;;;1.00;1.00;;;;;20.47;49.69;100900.78;5056499;28;45429;-48
2023/08/26 00:25:20;;;;;;;;;5.75;1.75;;;;;20.48;49.88;100897.09;5056456;28;45337;-50
2023/08/26 00:27:45;;;;;;;;;2.00;2.00;;;;;20.46;49.38;100892.88;5056086;28;46101;-50
2023/08/26 00:30:10;;;;;;;;;2.00;2.00;;;;;20.46;49.40;100901.00;5055941;28;45344;-46
2023/08/26 00:32:36;;;;;;;;;1.00;1.00;;;;;20.39;50.01;100891.03;5056443;28;45466;-48
2023/08/26 00:35:02;;;;;;;;;1.00;0.25;;;;;20.37;49.54;100884.97;5056223;28;45463;-48
2023/08/26 00:37:28;;;;;;;;;1.00;1.00;;;;;20.44;49.63;100896.63;5055634;28;45332;-49
2023/08/26 00:39:53;;;;;;;;;1.25;1.25;;;;;20.46;50.01;100899.13;5056079;28;45534;-50
2023/08/26 00:42:19;;;;;;;;;2.00;1.00;;;;;20.41;49.91;100888.09;5056093;28;45375;-52
2023/08/26 00:44:44;;;;;;;;;1.75;1.75;;;;;20.45;49.95;100892.06;5056382;28;45418;-51
2023/08/26 00:47:09;;;;;;;;;3.00;1.50;;;;;20.44;50.29;100890.41;5055785;28;47506;-47
2023/08/26 00:49:35;;;;;;;;;2.25;1.75;;;;;20.42;49.96;100882.47;5055678;28;45441;-47
2023/08/26 00:52:01;;;;;;;;;1.00;1.00;;;;;20.46;49.79;100893.72;5055700;28;45422;-47
2023/08/26 00:54:27;;;;;;;;;3.25;2.00;;;;;20.45;50.28;100892.06;5056345;28;45354;-45
2023/08/26 00:56:53;;;;;;;;;1.80;1.80;;;;;20.41;50.04;100880.81;5055778;28;46131;-45
2023/08/26 00:59:19;;;;;;;;;3.20;2.00;;;;;20.40;49.80;100884.56;5055288;28;45384;-45
2023/08/26 01:01:46;;;;;;;;;1.00;1.00;;;;;20.40;50.01;100883.75;5055898;28;45312;-47
2023/08/26 01:04:11;;;;;;;;;2.00;1.75;;;;;20.42;50.34;100892.47;5055895;28;45472;-51
2023/08/26 01:06:37;;;;;;;;;1.75;1.75;;;;;20.44;50.05;100885.00;5055721;28;47052;-50
2023/08/26 01:09:03;;;;;;;;;1.00;1.00;;;;;20.43;49.93;100889.53;5055679;28;45193;-47
2023/08/26 01:11:38;;;;;;;;;1.80;1.80;;;;;20.42;50.56;100884.34;5054380;28;45464;-47
2023/08/26 01:14:29;;;;;;;;;2.00;2.00;;;;;20.38;49.98;100878.53;5056119;28;45265;-52
2023/08/26 01:16:56;;;;;;;;;2.00;2.00;;;;;20.33;50.11;100883.72;5055574;28;47335;-49
2023/08/26 01:19:29;;;;;;;;;2.00;2.00;;;;;20.40;50.33;100902.66;5055423;28;45541;-50
2023/08/26 01:21:58;;;;;;;;;3.20;2.00;;;;;20.41;49.90;100890.81;5055578;28;45417;-49
2023/08/26 01:24:25;;;;;;;;;1.00;1.00;;;;;20.42;49.78;100897.88;5055932;28;45376;-49
2023/08/26 01:26:52;;;;;;;;;0.50;0.50;;;;;20.40;49.75;100897.25;5056378;28;45554;-48
2023/08/26 01:29:17;;;;;;;;;1.80;1.80;;;;;20.42;50.67;100898.69;5059087;28;45406;-50
2023/08/26 01:31:45;;;;;;;;;0.00;0.00;;;;;20.39;50.83;100901.84;5058958;28;45425;-48
2023/08/26 01:34:19;;;;;;;;;2.50;1.00;;;;;20.37;50.58;100892.25;5059177;28;45416;-47
2023/08/26 01:36:45;;;;;;;;;4.25;0.50;;;;;20.33;50.99;100891.00;5058459;28;46195;-46
2023/08/26 01:39:15;;;;;;;;;1.80;1.80;;;;;20.30;51.63;100886.00;5058742;28;45486;-49
2023/08/26 01:41:52;;;;;;;;;0.80;0.20;;;;;20.26;51.61;100901.78;5059117;28;45459;-48
2023/08/26 01:44:19;;;;;;;;;1.00;1.00;;;;;20.24;51.76;100884.97;5059134;28;45387;-45
2023/08/26 01:46:45;;;;;;;;;0.00;0.00;;;;;20.14;50.99;100871.03;5058616;28;46651;-47
2023/08/26 01:49:11;;;;;;;;;1.00;1.00;;;;;20.14;51.17;100877.28;5058616;28;45358;-47
2023/08/26 01:51:37;;;;;;;;;0.00;0.00;;;;;20.15;51.29;100875.41;5057469;28;45368;-47
2023/08/26 01:54:05;;;;;;;;;0.25;0.25;;;;;20.13;50.62;100877.47;5058943;28;45427;-47
2023/08/26 01:56:30;;;;;;;;;1.00;1.00;;;;;20.10;51.33;100876.03;5058364;28;46368;-47
2023/08/26 01:58:55;;;;;;;;;1.50;1.00;;;;;20.08;51.16;100877.28;5058554;28;45381;-47
2023/08/26 02:01:21;;;;;;;;;1.00;1.00;;;;;20.04;51.35;100876.84;5058350;28;45557;-49
2023/08/26 02:03:46;;;;;;;;;1.00;1.00;;;;;20.03;50.72;100871.66;5058535;28;45451;-46
2023/08/26 02:06:11;;;;;;;;;0.00;0.00;;;;;20.02;50.86;100873.53;5058466;28;46411;-47
2023/08/26 02:08:37;;;;;;;;;0.00;0.00;;;;;20.01;50.91;100866.44;5058312;28;45359;-47
2023/08/26 02:11:02;;;;;;;;;1.00;1.00;;;;;19.99;51.15;100868.53;5058316;28;45369;-46
2023/08/26 02:13:27;;;;;;;;;0.00;0.00;;;;;19.89;51.47;100863.53;5058727;28;45364;-48
2023/08/26 02:15:55;;;;;;;;;1.50;1.00;;;;;19.81;51.87;100869.13;5058563;28;47324;-47
2023/08/26 02:18:20;;;;;;;;;1.80;1.80;;;;;19.75;51.80;100863.72;5058305;28;45468;-50
2023/08/26 02:20:45;;;;;;;;;2.00;1.00;;;;;19.66;52.18;100857.66;5058312;28;45437;-44
2023/08/26 02:23:11;;;;;;;;;2.25;2.25;;;;;19.55;52.77;100853.69;5057914;28;45545;-51
2023/08/26 02:25:39;;;;;;;;;2.00;1.00;;;;;19.52;52.47;100862.16;5058084;28;46470;-46
2023/08/26 02:28:05;;;;;;;;;3.00;3.00;;;;;19.46;52.66;100860.25;5058092;28;45426;-45
2023/08/26 02:30:30;;;;;;;;;1.75;1.75;;;;;19.38;52.74;100865.84;5056551;28;45470;-48
2023/08/26 02:32:55;;;;;;;;;4.50;2.00;;;;;19.28;52.86;100855.44;5058104;28;45241;-48
2023/08/26 02:35:21;;;;;;;;;4.00;1.75;;;;;19.16;53.31;100854.34;5057722;28;46295;-49
2023/08/26 02:37:46;;;;;;;;;1.25;1.25;;;;;19.12;53.58;100861.16;5056138;28;45510;-48
2023/08/26 02:40:11;;;;;;;;;3.75;1.00;;;;;19.05;53.39;100855.75;5058177;28;45332;-48
2023/08/26 02:42:37;;;;;;;;;1.00;1.00;;;;;19.02;54.02;100855.31;5058525;28;45374;-49
2023/08/26 02:45:04;;;;;;;;;1.00;1.00;;;;;18.99;53.75;100851.13;5057904;28;46060;-49
2023/08/26 02:47:29;;;;;;;;;1.40;1.40;;;;;18.90;54.12;100845.06;5057854;28;45443;-48
2023/08/26 02:49:55;;;;;;;;;5.75;2.00;;;;;18.91;53.94;100846.72;5058094;28;45316;-45
2023/08/26 02:52:20;;;;;;;;;1.00;0.75;;;;;18.93;54.27;100855.47;5057801;28;45486;-47
2023/08/26 02:54:45;;;;;;;;;1.25;1.25;;;;;18.91;54.26;100849.44;5057190;28;54258;-47
2023/08/26 02:57:11;;;;;;;;;2.00;2.00;;;;;18.89;54.48;100859.59;5057578;28;45415;-47
2023/08/26 02:59:36;;;;;;;;;2.00;1.00;;;;;18.83;54.67;100851.44;5057826;28;45298;-47
2023/08/26 03:02:03;;;;;;;;;2.50;1.50;;;;;18.80;54.49;100849.19;5057876;28;45367;-46
2023/08/26 03:04:32;;;;;;;;;3.00;2.00;;;;;18.78;55.01;100840.44;5057502;28;45418;-47
2023/08/26 03:06:58;;;;;;;;;2.50;2.50;;;;;18.79;55.16;100836.72;5057319;28;45569;-46
2023/08/26 03:09:24;;;;;;;;;1.75;1.75;;;;;18.81;55.30;100829.28;5057526;28;45468;-45
2023/08/26 03:11:49;;;;;;;;;2.00;2.00;;;;;18.77;55.94;100834.22;5057622;28;45570;-47
2023/08/26 03:14:15;;;;;;;;;2.00;2.00;;;;;18.76;56.14;100834.44;5057156;28;52963;-46
2023/08/26 03:16:40;;;;;;;;;1.50;1.50;;;;;18.71;56.38;100824.25;5057287;28;45339;-49
2023/08/26 03:19:06;;;;;;;;;11.50;10.25;;;;;18.74;56.34;100821.13;5056116;28;45306;-47
2023/08/26 03:21:31;;;;;;;;;3.00;3.00;;;;;18.72;56.77;100830.47;5057458;28;45338;-50
2023/08/26 03:23:57;;;;;;;;;3.00;3.00;;;;;18.70;56.90;100839.56;5057079;28;45356;-47
2023/08/26 03:26:23;;;;;;;;;0.75;0.75;;;;;18.67;56.93;100841.81;5055849;28;45724;-48
2023/08/26 03:28:49;;;;;;;;;2.00;2.00;;;;;18.64;56.95;100837.63;5057217;28;45300;-46
2023/08/26 03:31:14;;;;;;;;;3.50;3.00;;;;;18.60;57.03;100822.91;5056059;28;45465;-45
2023/08/26 03:33:40;;;;;;;;;3.25;3.25;;;;;18.58;56.78;100829.50;5056854;28;46633;-46
2023/08/26 03:36:06;;;;;;;;;3.75;2.00;;;;;18.55;57.31;100822.66;5057102;28;45412;-46
2023/08/26 03:38:33;;;;;;;;;3.00;1.50;;;;;18.52;57.21;100833.00;5056983;28;45873;-47
2023/08/26 03:41:01;;;;;;;;;3.00;2.25;;;;;18.50;56.91;100832.34;5057200;28;45407;-51
2023/08/26 03:43:26;;;;;;;;;1.50;1.50;;;;;18.26;56.81;100798.63;5057082;28;47480;-48
2023/08/26 03:45:52;;;;;;;;;2.00;2.00;;;;;18.40;57.39;100832.69;5057061;28;45331;-44
2023/08/26 03:48:17;;;;;;;;;1.50;1.50;;;;;18.36;57.38;100834.09;5057093;28;45367;-48
2023/08/26 03:50:53;;;;;;;;;2.00;2.00;;;;;18.32;57.05;100833.66;5056272;28;45463;-46
2023/08/26 03:53:18;;;;;;;;;2.50;2.50;;;;;18.24;57.88;100823.03;5056004;28;46553;-48
2023/08/26 03:55:45;;;;;;;;;2.00;2.00;;;;;18.24;57.92;100825.72;5056787;28;45331;-46
2023/08/26 03:58:10;;;;;;;;;2.00;2.00;;;;;18.18;58.52;100824.66;5056836;28;45265;-50
2023/08/26 04:00:37;;;;;;;;;1.75;1.00;;;;;18.16;58.66;100825.84;5056907;28;45527;-46
2023/08/26 04:03:04;;;;;;;;;2.25;2.25;;;;;18.13;58.75;100828.97;5056454;28;47049;-50
2023/08/26 04:05:30;;;;;;;;;2.00;2.00;;;;;18.08;59.08;100817.94;5056559;28;45319;-51
2023/08/26 04:07:55;;;;;;;;;2.25;1.25;;;;;18.08;59.42;100821.47;5056342;28;45300;-46
2023/08/26 04:10:20;;;;;;;;;2.50;2.00;;;;;18.07;59.34;100833.25;5056790;28;45395;-49
2023/08/26 04:12:46;;;;;;;;;2.50;2.50;;;;;18.05;59.15;100839.88;5056325;28;46425;-49
2023/08/26 04:15:11;;;;;;;;;2.00;2.00;;;;;18.01;59.16;100827.81;5056373;28;45271;-47
2023/08/26 04:17:36;;;;;;;;;2.50;2.00;;;;;18.02;59.35;100834.84;5056725;28;45304;-50
2023/08/26 04:20:02;;;;;;;;;3.75;1.00;;;;;17.98;59.79;100825.50;5056713;28;45307;-45
2023/08/26 04:22:28;;;;;;;;;3.00;2.00;;;;;17.94;59.27;100825.88;5056088;28;47013;-48
2023/08/26 04:24:53;;;;;;;;;3.00;1.00;;;;;17.90;59.45;100823.78;5056073;28;45353;-46
2023/08/26 04:27:19;;;;;;;;;1.50;1.50;;;;;17.90;59.48;100829.16;5056375;28;45388;-46
2023/08/26 04:29:44;;;;;;;;;1.25;1.25;;;;;17.91;59.62;100822.78;5056472;28;45423;-49
2023/08/26 04:32:09;;;;;;;;;4.00;2.00;;;;;17.92;59.55;100837.88;5056121;28;46303;-47
2023/08/26 04:34:35;;;;;;;;;4.00;4.00;;;;;17.91;59.73;100822.78;5056172;28;45713;-48
2023/08/26 04:37:00;;;;;;;;;3.25;3.00;;;;;17.97;59.60;100827.38;5055960;28;45390;-50
2023/08/26 04:39:26;;;;;;;;;2.25;2.00;;;;;17.96;59.73;100820.31;5056313;28;45359;-47
2023/08/26 04:41:51;;;;;;;;;1.25;1.25;;;;;17.99;59.96;100825.31;5055831;28;46287;-45
2023/08/26 04:44:19;;;;;;;;;2.00;1.00;;;;;17.97;59.82;100826.53;5055850;28;45339;-49
2023/08/26 04:46:45;;;;;;;;;1.75;1.75;;;;;17.94;59.75;100831.25;5056348;28;45482;-47
2023/08/26 04:49:11;;;;;;;;;1.00;0.00;;;;;17.90;59.58;100827.28;5056169;28;45407;-48
2023/08/26 04:51:37;;;;;;;;;5.25;3.00;;;;;17.92;60.09;100829.81;5056061;28;45689;-47
2023/08/26 04:54:03;;;;;;;;;2.75;1.50;;;;;17.87;60.58;100824.19;5055786;28;45209;-46
2023/08/26 04:56:28;;;;;;;;;1.00;1.00;;;;;17.88;60.32;100833.91;5055874;28;45433;-46
2023/08/26 04:58:54;;;;;;;;;1.75;1.75;;;;;17.87;60.68;100826.88;5056277;28;45267;-49
2023/08/26 05:01:20;;;;;;;;;5.00;2.00;;;;;17.86;60.75;100831.38;5055675;28;47002;-48
2023/08/26 05:03:45;;;;;;;;;2.00;2.00;;;;;17.85;60.62;100834.28;5055860;28;45546;-47
2023/08/26 05:06:10;;;;;;;;;4.25;2.50;;;;;17.82;60.87;100842.75;5055790;28;45890;-48
2023/08/26 05:08:36;;;;;;;;;3.00;1.00;;;;;17.80;61.07;100847.50;5056011;28;45396;-49
2023/08/26 05:11:01;;;;;;;;;2.00;2.00;;;;;17.75;61.44;100845.38;5055510;28;45924;-48
2023/08/26 05:13:26;;;;;;;;;2.25;2.25;;;;;17.75;61.19;100855.31;5055620;28;45354;-46
2023/08/26 05:15:52;;;;;;;;;1.00;1.00;;;;;17.76;61.44;100854.28;5055831;28;45391;-49
2023/08/26 05:18:18;;;;;;;;;1.75;1.75;;;;;17.75;61.52;100852.63;5054674;28;45488;-49
2023/08/26 05:20:47;;;;;;;;;2.75;1.00;;;;;17.75;61.64;100852.63;5055328;28;46073;-48
2023/08/26 05:23:14;;;;;;;;;2.75;2.75;;;;;17.75;61.61;100858.84;5055292;28;45309;-48
2023/08/26 05:25:40;;;;;;;;;1.75;1.75;;;;;17.76;61.58;100859.66;5055716;28;45446;-48
2023/08/26 05:28:05;;;;;;;;;2.00;2.00;;;;;17.75;61.26;100861.53;5056052;28;45417;-49
2023/08/26 05:30:31;;;;;;;;;2.00;2.00;;;;;17.74;61.52;100859.88;5055407;28;46227;-49
2023/08/26 05:32:56;;;;;;;;;1.25;1.25;;;;;17.77;61.51;100864.84;5055250;28;45410;-45
2023/08/26 05:35:22;;;;;;;;;4.00;2.00;;;;;17.80;61.58;100866.31;5055416;28;45273;-49
2023/08/26 05:37:47;;;;;;;;;2.50;1.75;;;;;17.81;61.63;100871.50;5055645;28;45335;-47
2023/08/26 05:40:13;;;;;;;;;2.00;2.00;;;;;17.79;61.40;100865.50;5055376;28;46478;-50
2023/08/26 05:42:38;;;;;;;;;3.25;2.50;;;;;17.81;61.72;100859.91;5055493;28;45479;-47
2023/08/26 05:45:05;;;;;;;;;2.75;1.25;;;;;17.81;61.87;100862.59;5055325;28;45466;-48
2023/08/26 05:47:31;;;;;;;;;0.75;0.75;;;;;17.80;61.62;100855.56;5055514;28;45383;-50
2023/08/26 05:49:58;;;;;;;;;1.75;1.75;;;;;17.76;61.72;100855.09;5054961;28;46867;-47
2023/08/26 05:52:24;;;;;;;;;1.00;1.00;;;;;17.75;62.17;100850.75;5055152;28;45491;-47
2023/08/26 05:54:49;;;;;;;;;2.25;2.00;;;;;17.74;62.04;100854.47;5055084;28;45360;-47
2023/08/26 05:57:14;;;;;;;;;1.00;1.00;;;;;17.75;62.17;100850.75;5055259;28;45560;-50
2023/08/26 05:59:40;;;;;;;;;3.50;2.00;;;;;17.71;61.80;100862.88;5054998;28;46110;-47
2023/08/26 06:02:05;;;;;;;;;2.00;2.00;;;;;17.71;62.27;100863.72;5054978;28;45323;-48
2023/08/26 06:04:30;;;;;;;;;1.75;1.75;;;;;17.65;61.87;100844.81;5055101;28;45812;-49
2023/08/26 06:06:57;;;;;;;;;0.00;0.00;;;;;17.66;62.13;100860.78;5055112;28;45595;-48
2023/08/26 06:09:23;;;;;;;;;1.25;1.25;;;;;17.65;62.25;100877.91;5054627;28;46401;-44
2023/08/26 06:11:48;;;;;;;;;1.50;1.50;;;;;17.62;62.43;100870.25;5054801;28;45505;-47
2023/08/26 06:14:14;;;;;;;;;2.75;2.00;;;;;17.65;62.39;100869.00;5058007;28;45532;-47
2023/08/26 06:16:41;;;;;;;;;2.00;2.00;;;;;17.64;62.42;100864.66;5058898;28;45403;-49
2023/08/26 06:19:06;;;;;;;;;1.75;1.75;;;;;17.59;62.54;100867.09;5058170;28;45277;-48
2023/08/26 06:21:31;;;;;;;;;3.00;2.00;;;;;17.59;62.57;100870.63;5057716;28;45175;-46
2023/08/26 06:23:57;;;;;;;;;2.50;1.00;;;;;17.59;62.43;100867.94;5058314;28;45262;-47
2023/08/26 06:26:22;;;;;;;;;1.75;1.00;;;;;17.63;62.37;100869.22;5058531;28;45189;-47
2023/08/26 06:28:47;;;;;;;;;1.00;1.00;;;;;17.71;62.45;100865.59;5057903;28;46027;-48
2023/08/26 06:31:13;;;;;;;;;1.00;1.00;;;;;17.72;62.20;100859.16;5058022;28;46003;-47
2023/08/26 06:33:38;;;;;;;;;1.00;1.00;;;;;17.79;62.20;100870.88;5058144;28;45482;-47
2023/08/26 06:36:04;;;;;;;;;2.00;2.00;;;;;17.82;61.56;100873.16;5058081;28;45471;-46
2023/08/26 06:38:29;;;;;;;;;3.00;0.00;;;;;17.85;61.83;100866.56;5058003;28;45637;-45
2023/08/26 06:40:56;;;;;;;;;2.50;2.00;;;;;17.87;61.88;100856.47;5057851;28;45431;-48
2023/08/26 06:43:22;;;;;;;;;2.50;1.25;;;;;17.89;62.24;100867.88;5057996;28;45402;-45
2023/08/26 06:45:47;;;;;;;;;2.00;2.00;;;;;17.94;61.63;100868.13;5058052;28;45368;-45
2023/08/26 06:48:13;;;;;;;;;1.00;1.00;;;;;17.96;61.69;100863.38;5058008;28;45437;-49
2023/08/26 06:50:39;;;;;;;;;2.00;1.00;;;;;18.02;61.08;100862.59;5057733;28;45465;-44
2023/08/26 06:53:04;;;;;;;;;2.00;0.75;;;;;18.06;60.99;100863.88;5057806;28;45512;-47
2023/08/26 06:55:30;;;;;;;;;3.00;0.00;;;;;18.09;61.05;100862.69;5057891;28;45143;-46
2023/08/26 06:57:55;;;;;;;;;4.25;1.00;;;;;18.11;60.71;100858.75;5057610;28;45428;-47
2023/08/26 07:00:20;;;;;;;;;1.00;1.00;;;;;18.15;60.92;100856.50;5057613;28;45404;-45
2023/08/26 07:02:46;;;;;;;;;1.00;1.00;;;;;18.27;60.70;100862.22;5057558;28;45597;-46
2023/08/26 07:05:11;;;;;;;;;2.75;1.00;;;;;18.38;60.41;100859.00;5057831;28;45359;-44
2023/08/26 07:07:36;;;;;;;;;1.00;1.00;;;;;18.57;60.01;100863.69;5057444;28;46520;-49
2023/08/26 07:10:03;;;;;;;;;2.00;2.00;;;;;19.06;58.93;100856.56;5057404;28;45252;-49
2023/08/26 07:12:30;;;;;;;;;2.75;1.00;;;;;20.38;56.76;100847.97;5057641;28;45250;-49
2023/08/26 07:14:55;;;;;;;;;2.75;1.00;;;;;22.02;52.42;100839.50;5057463;28;45348;-46
2023/08/26 07:17:21;;;;;;;;;4.00;4.00;;;;;23.36;49.42;100848.03;5057296;28;45349;-47
2023/08/26 07:19:46;;;;;;;;;1.00;1.00;;;;;24.43;46.88;100848.13;5057367;28;45457;-48
2023/08/26 07:22:12;;;;;;;;;1.00;1.00;;;;;25.38;44.88;100846.97;5057383;28;45449;-49
2023/08/26 07:24:37;;;;;;;;;5.25;1.00;;;;;26.09;43.33;100845.56;5056397;28;45415;-47
2023/08/26 07:27:03;;;;;;;;;2.00;1.50;;;;;26.95;41.52;100845.25;5057121;28;45858;-46
2023/08/26 07:29:33;;;;;;;;;3.00;1.40;;;;;27.63;40.73;100844.97;5055635;28;45619;-45
2023/08/26 07:31:58;;;;;;;;;0.80;0.80;;;;;28.28;38.83;100839.31;5057014;28;45325;-47
2023/08/26 07:34:24;;;;;;;;;1.25;0.00;;;;;28.76;38.97;100831.16;5057379;28;45438;-46
2023/08/26 07:36:49;;;;;;;;;0.75;0.75;;;;;29.29;36.59;100834.72;5056895;28;45384;-46
2023/08/26 07:39:14;;;;;;;;;0.75;0.75;;;;;29.67;36.15;100816.19;5056761;28;45337;-47
2023/08/26 07:41:40;;;;;;;;;2.00;0.00;;;;;30.18;35.98;100822.53;5057495;28;45451;-48
2023/08/26 07:44:05;;;;;;;;;0.00;0.00;;;;;30.69;34.38;100824.38;5057428;28;45420;-47
2023/08/26 07:46:30;;;;;;;;;0.00;0.00;;;;;31.13;34.13;100829.19;5056783;28;45562;-46
2023/08/26 07:48:56;;;;;;;;;0.00;0.00;;;;;31.65;33.95;100825.09;5056915;28;45336;-47
2023/08/26 07:51:21;;;;;;;;;2.00;0.00;;;;;32.01;33.08;100834.72;5056681;28;45363;-46
2023/08/26 07:53:46;;;;;;;;;0.00;0.00;;;;;32.35;31.83;100844.88;5057047;28;45371;-48
2023/08/26 07:56:12;;;;;;;;;0.50;0.00;;;;;32.32;32.26;100842.72;5056793;28;46100;-49
2023/08/26 07:58:37;;;;;;;;;0.00;0.00;;;;;32.09;32.40;100837.97;5056775;28;45459;-49
2023/08/26 08:01:03;;;;;;;;;0.00;0.00;;;;;31.91;32.91;100843.06;5056767;28;45401;-46
2023/08/26 08:03:28;;;;;;;;;1.50;1.50;;;;;31.94;32.16;100844.41;5057003;28;45390;-50
2023/08/26 08:05:53;;;;;;;;;2.50;2.25;;;;;31.46;33.08;100855.97;5056459;28;46953;-48
2023/08/26 08:08:19;;;;;;;;;0.50;0.50;;;;;30.79;34.00;100849.91;5056797;28;45419;-46
2023/08/26 08:10:44;;;;;;;;;1.00;0.00;;;;;30.21;34.95;100852.16;5056641;28;46225;-47
2023/08/26 08:13:10;;;;;;;;;1.00;1.00;;;;;29.41;36.87;100848.16;5056564;28;45410;-47
2023/08/26 08:15:35;;;;;;;;;1.00;1.00;;;;;28.72;37.69;100855.50;5056695;28;45213;-47
2023/08/26 08:18:02;;;;;;;;;1.00;1.00;;;;;28.03;39.69;100866.47;5056728;28;45325;-51
2023/08/26 08:20:29;;;;;;;;;0.00;0.00;;;;;27.34;39.38;100870.59;5056695;28;45325;-49
2023/08/26 08:22:54;;;;;;;;;0.40;0.40;;;;;27.27;39.86;100872.72;5056694;28;45387;-52
2023/08/26 08:25:19;;;;;;;;;0.00;0.00;;;;;27.47;39.92;100879.50;5056309;28;45779;-48
2023/08/26 08:27:45;;;;;;;;;0.00;0.00;;;;;27.20;39.87;100882.19;5056470;28;45666;-52
2023/08/26 08:30:10;;;;;;;;;0.00;0.00;;;;;26.97;40.61;100881.31;5056456;28;45975;-49
2023/08/26 08:32:36;;;;;;;;;1.00;1.00;;;;;26.58;41.23;100897.66;5056481;28;45522;-45
2023/08/26 08:35:02;;;;;;;;;0.50;0.50;;;;;26.50;40.95;100886.34;5055618;28;46027;-46
2023/08/26 08:37:28;;;;;;;;;0.00;0.00;;;;;27.21;39.64;100883.81;5055996;28;45335;-49
2023/08/26 08:39:53;;;;;;;;;1.75;1.75;;;;;28.68;37.67;100889.97;5056114;28;45408;-46
2023/08/26 08:42:21;;;;;;;;;1.00;1.00;;;;;28.28;37.62;100888.56;5056426;28;45359;-49
2023/08/26 08:44:47;;;;;;;;;1.00;1.00;;;;;27.68;39.64;100883.28;5055928;28;45383;-48
2023/08/26 08:47:13;;;;;;;;;0.60;0.60;;;;;27.59;39.13;100889.19;5056098;28;45326;-47
2023/08/26 08:49:41;;;;;;;;;1.00;0.75;;;;;26.93;40.22;100893.81;5056381;28;45396;-45
2023/08/26 08:52:07;;;;;;;;;1.20;0.00;;;;;26.28;40.82;100888.94;5056361;28;45299;-47
2023/08/26 08:54:34;;;;;;;;;1.60;0.00;;;;;25.73;42.18;100895.03;5055703;28;46011;-45
2023/08/26 08:57:00;;;;;;;;;0.20;0.20;;;;;25.06;43.10;100888.19;5055781;28;45341;-49
2023/08/26 08:59:27;;;;;;;;;2.00;1.00;;;;;24.69;44.47;100900.41;5055970;28;45340;-47
2023/08/26 09:01:57;;;;;;;;;1.00;1.00;;;;;24.59;44.64;100898.28;5056150;28;45454;-46
2023/08/26 09:04:24;;;;;;;;;0.40;0.40;;;;;24.33;45.00;100908.50;5055592;28;46187;-48
2023/08/26 09:06:50;;;;;;;;;1.20;0.80;;;;;24.20;45.07;100897.84;5055826;28;45422;-46
2023/08/26 09:09:16;;;;;;;;;0.00;0.00;;;;;25.67;43.77;100888.66;5055838;28;45402;-46
2023/08/26 09:11:42;;;;;;;;;0.40;0.20;;;;;28.20;38.25;100896.41;5055722;28;45297;-50
2023/08/26 09:14:07;;;;;;;;;0.00;0.00;;;;;29.23;36.89;100898.78;5055599;28;47082;-48
2023/08/26 09:16:40;;;;;;;;;3.00;1.00;;;;;30.49;34.60;100889.19;5055697;28;45367;-45
2023/08/26 09:19:07;;;;;;;;;2.00;0.40;;;;;33.65;30.32;100879.78;5055666;28;45221;-47
2023/08/26 09:21:32;;;;;;;;;1.00;1.00;;;;;34.13;29.88;100893.44;5055569;28;45321;-48
2023/08/26 09:23:59;;;;;;;;;1.00;1.00;;;;;32.76;32.83;100885.81;5055196;28;46293;-45
2023/08/26 09:26:24;;;;;;;;;0.00;0.00;;;;;34.71;29.05;100899.34;5055139;28;45445;-49
2023/08/26 09:28:51;;;;;;;;;1.25;1.25;;;;;36.32;27.33;100890.88;5055329;28;45587;-50
2023/08/26 09:31:17;;;;;;;;;1.80;0.00;;;;;37.42;25.97;100892.88;5055410;28;45293;-48
2023/08/26 09:33:42;;;;;;;;;0.00;0.00;;;;;39.15;22.90;100891.81;5055266;28;47706;-51
2023/08/26 09:36:09;;;;;;;;;0.00;0.00;;;;;39.32;23.63;100886.16;5055163;28;45528;-47
2023/08/26 09:38:44;;;;;;;;;1.40;1.40;;;;;38.32;24.19;100895.84;5054847;28;45379;-50
2023/08/26 09:41:10;;;;;;;;;1.00;0.60;;;;;39.90;22.38;100892.75;5055450;28;45398;-47
2023/08/26 09:43:39;;;;;;;;;1.75;0.25;;;;;39.37;23.06;100891.50;5054956;28;46326;-48
2023/08/26 09:46:04;;;;;;;;;2.00;0.80;;;;;37.99;24.97;100891.97;5055234;28;45439;-50
2023/08/26 09:48:29;;;;;;;;;1.00;1.00;;;;;37.54;24.52;100884.72;5057362;28;45399;-51
2023/08/26 09:50:55;;;;;;;;;0.25;0.25;;;;;38.06;23.68;100873.66;5058854;28;45728;-51
2023/08/26 09:53:38;;;;;;;;;0.00;0.00;;;;;38.50;25.03;100874.38;5058347;28;45903;-46
2023/08/26 09:56:04;;;;;;;;;0.00;0.00;;;;;38.18;23.28;100872.97;5058454;28;45356;-47
2023/08/26 09:58:29;;;;;;;;;1.50;1.00;;;;;36.69;25.12;100878.56;5058762;28;45768;-48
2023/08/26 10:00:55;;;;;;;;;0.00;0.00;;;;;35.80;25.81;100883.00;5058798;28;45306;-46
2023/08/26 10:03:27;;;;;;;;;0.00;0.00;;;;;33.95;27.98;100890.38;5058173;28;45396;-49
2023/08/26 10:05:54;;;;;;;;;0.00;0.00;;;;;32.47;29.56;100881.13;5058369;28;45225;-45
2023/08/26 10:08:27;;;;;;;;;3.20;0.20;;;;;31.29;31.00;100889.31;5057047;28;45436;-47
2023/08/26 10:10:54;;;;;;;;;0.00;0.00;;;;;30.03;32.81;100878.19;5058652;28;45312;-49
2023/08/26 10:13:23;;;;;;;;;0.20;0.20;;;;;29.43;33.13;100882.44;5058268;28;45427;-50
2023/08/26 10:15:51;;;;;;;;;0.00;0.00;;;;;31.49;32.01;100888.41;5058105;28;45479;-44
2023/08/26 10:18:45;;;;;;;;;1.00;0.20;;;;;35.53;26.90;100883.91;5057122;28;45352;-48
2023/08/26 10:21:13;;;;;;;;;1.60;1.60;;;;;38.73;22.99;100863.84;5058590;28;45415;-51
2023/08/26 10:23:39;;;;;;;;;0.60;0.60;;;;;41.00;21.47;100871.91;5058279;28;45322;-48
2023/08/26 10:26:06;;;;;;;;;0.80;0.80;;;;;42.37;19.55;100870.00;5057928;28;45461;-46
2023/08/26 10:28:34;;;;;;;;;0.80;0.60;;;;;40.96;21.86;100869.03;5058336;28;45389;-47
2023/08/26 10:30:59;;;;;;;;;0.40;0.40;;;;;42.82;19.60;100866.75;5058143;28;45414;-48
2023/08/26 10:33:26;;;;;;;;;2.00;0.50;;;;;42.61;22.78;100867.03;5056429;28;46764;-50
2023/08/26 10:36:15;;;;;;;;;0.00;0.00;;;;;44.35;19.47;100870.44;5057961;28;45388;-47
2023/08/26 10:38:57;;;;;;;;;0.40;0.00;;;;;45.35;16.57;100874.88;5058205;28;45519;-51
2023/08/26 10:41:23;;;;;;;;;0.00;0.00;;;;;45.15;19.30;100866.56;5057919;28;45473;-49
2023/08/26 10:43:57;;;;;;;;;1.00;1.00;;;;;42.72;18.91;100864.50;5057609;28;47096;-50
2023/08/26 10:46:32;;;;;;;;;0.00;0.00;;;;;44.01;19.52;100859.78;5057847;28;45487;-50
2023/08/26 10:48:59;;;;;;;;;0.00;0.00;;;;;45.24;16.22;100858.66;5058056;28;45174;-50
2023/08/26 10:51:25;;;;;;;;;0.00;0.00;;;;;44.64;16.88;100847.34;5057871;28;45556;-51
2023/08/26 10:53:50;;;;;;;;;0.80;0.80;;;;;42.80;17.50;100851.50;5056791;28;46410;-50
2023/08/26 10:56:21;;;;;;;;;1.00;1.00;;;;;40.25;20.00;100859.00;5057447;28;45408;-51
2023/08/26 10:58:48;;;;;;;;;0.00;0.00;;;;;41.71;19.03;100853.72;5057720;28;45365;-47
2023/08/26 11:01:16;;;;;;;;;1.60;0.80;;;;;41.38;20.11;100849.16;5057944;28;45452;-49
2023/08/26 11:03:45;;;;;;;;;0.00;0.00;;;;;40.46;20.16;100841.41;5057510;28;45355;-47
2023/08/26 11:06:18;;;;;;;;;0.00;0.00;;;;;39.65;20.21;100833.34;5057720;28;45381;-48
2023/08/26 11:08:52;;;;;;;;;0.00;0.00;;;;;37.70;22.96;100840.66;5056401;28;45481;-48
2023/08/26 11:11:18;;;;;;;;;1.20;0.20;;;;;39.76;20.73;100836.53;5057409;28;45520;-49
2023/08/26 11:13:45;;;;;;;;;1.00;1.00;;;;;41.67;18.99;100834.06;5057350;28;46463;-45
2023/08/26 11:16:11;;;;;;;;;0.00;0.00;;;;;42.46;17.89;100820.28;5057520;28;45452;-46
2023/08/26 11:18:37;;;;;;;;;0.00;0.00;;;;;41.58;19.06;100823.06;5057694;28;45355;-46
2023/08/26 11:21:06;;;;;;;;;1.75;1.00;;;;;40.80;19.37;100815.88;5057720;28;45163;-47